Time;durP1;ratioP1;P1;durP2;ratioP2;P2;SDS_P1;SDS_P2;PMS_P1;PMS_P2;Temp;Humidity;BMP_temperature;BMP_pressure;BME280_temperature;BME280_humidity;BME280_pressure;Samples;Min_cycle;Max_cycle;Signal;HPM_P1;HPM_P2
2023/02/16 00:00:29;;;;;;;8.17;3.63;;;3.80;99.90;;;;;;5042675;28;20230;-74
2023/02/16 00:02:57;;;;;;;11.27;3.90;;;3.60;99.90;;;;;;5034917;28;20234;-74
2023/02/16 00:05:33;;;;;;;5.10;3.23;;;3.50;99.90;;;;;;5064403;28;20321;-74
2023/02/16 00:08:01;;;;;;;7.30;3.33;;;3.50;99.90;;;;;;5062963;28;20318;-73
2023/02/16 00:10:33;;;;;;;8.03;3.50;;;3.50;99.90;;;;;;5061064;28;20203;-74
2023/02/16 00:15:46;;;;;;;7.57;3.37;;;3.50;99.90;;;;;;5049871;28;20187;-74
2023/02/16 00:18:21;;;;;;;11.90;4.87;;;3.50;99.90;;;;;;5057492;28;21041;-74
2023/02/16 00:20:48;;;;;;;11.43;5.37;;;3.50;99.90;;;;;;5034473;28;20202;-74
2023/02/16 00:23:15;;;;;;;8.20;3.80;;;3.50;99.90;;;;;;5051144;28;20190;-74
2023/02/16 00:25:42;;;;;;;15.87;5.13;;;3.40;99.90;;;;;;5058784;28;20206;-74
2023/02/16 00:28:16;;;;;;;7.17;3.90;;;3.40;99.90;;;;;;5070455;28;20207;-74
2023/02/16 00:30:43;;;;;;;7.83;3.50;;;3.30;99.90;;;;;;5052920;28;20198;-74
2023/02/16 00:33:19;;;;;;;8.00;4.10;;;3.30;99.90;;;;;;5069017;28;20187;-74
2023/02/16 00:35:46;;;;;;;8.37;3.50;;;3.40;99.90;;;;;;5052138;28;20183;-74
2023/02/16 00:38:13;;;;;;;8.97;3.90;;;3.30;99.90;;;;;;5042415;28;20914;-74
2023/02/16 00:40:41;;;;;;;9.30;4.03;;;3.40;99.90;;;;;;5043536;28;20279;-74
2023/02/16 00:43:34;;;;;;;4.40;2.97;;;3.30;99.90;;;;;;5049732;28;20205;-74
2023/02/16 00:46:00;;;;;;;9.77;4.17;;;3.30;99.90;;;;;;5063403;28;20194;-74
2023/02/16 00:48:26;;;;;;;8.27;4.67;;;3.40;99.90;;;;;;5046516;28;20298;-74
2023/02/16 00:50:53;;;;;;;7.70;3.97;;;3.40;99.90;;;;;;5049171;28;20199;-74
2023/02/16 00:53:19;;;;;;;9.77;3.70;;;3.40;99.90;;;;;;5050490;28;20198;-74
2023/02/16 00:55:47;;;;;;;8.50;3.47;;;3.30;99.90;;;;;;5035888;28;20230;-74
2023/02/16 00:58:30;;;;;;;8.87;3.00;;;3.30;99.90;;;;;;5048932;28;20542;-74
2023/02/16 01:01:11;;;;;;;6.57;3.23;;;3.30;99.90;;;;;;5048835;28;20218;-74
2023/02/16 01:03:38;;;;;;;7.60;3.33;;;3.30;99.90;;;;;;5044627;28;20195;-74
2023/02/16 01:11:35;;;;;;;14.07;5.30;;;3.30;99.90;;;;;;5046785;28;20267;-74
2023/02/16 01:14:01;;;;;;;19.20;5.60;;;3.40;99.90;;;;;;5043696;28;20643;-74
2023/02/16 01:16:41;;;;;;;11.10;3.87;;;3.30;99.90;;;;;;5038299;28;20200;-74
2023/02/16 01:19:10;;;;;;;13.50;4.30;;;3.20;99.90;;;;;;5049053;28;20190;-74
2023/02/16 01:21:37;;;;;;;14.07;4.90;;;3.20;99.90;;;;;;5045583;28;20199;-74
2023/02/16 01:24:03;;;;;;;9.83;5.80;;;3.10;99.90;;;;;;5069842;28;20187;-74
2023/02/16 01:26:38;;;;;;;15.10;6.10;;;3.10;99.90;;;;;;5043700;28;20203;-74
2023/02/16 01:29:11;;;;;;;8.50;4.60;;;3.20;99.90;;;;;;5050773;28;20179;-74
2023/02/16 01:31:38;;;;;;;10.43;3.43;;;3.20;99.90;;;;;;5055047;28;20184;-74
2023/02/16 01:34:04;;;;;;;5.73;3.33;;;3.20;99.90;;;;;;5046971;28;20309;-74
2023/02/16 01:36:41;;;;;;;9.60;4.10;;;3.20;99.90;;;;;;5045097;28;20675;-74
2023/02/16 01:39:13;;;;;;;13.03;4.30;;;3.10;99.90;;;;;;5047540;28;20324;-74
2023/02/16 01:42:22;;;;;;;10.27;4.03;;;3.10;99.90;;;;;;5061758;28;20195;-74
2023/02/16 01:45:26;;;;;;;6.07;3.40;;;3.10;99.90;;;;;;5045343;28;20194;-74
2023/02/16 01:48:02;;;;;;;6.33;3.70;;;3.10;99.90;;;;;;5046203;28;20243;-74
2023/02/16 01:50:47;;;;;;;8.97;4.20;;;3.10;99.90;;;;;;5039850;28;20260;-74
2023/02/16 01:54:05;;;;;;;16.67;6.70;;;3.10;99.90;;;;;;5040621;28;21463;-74
2023/02/16 01:56:59;;;;;;;7.63;4.13;;;3.10;99.90;;;;;;5026270;28;20202;-74
2023/02/16 01:59:48;;;;;;;8.83;4.53;;;3.10;99.90;;;;;;5044864;28;20187;-74
2023/02/16 02:02:24;;;;;;;8.40;3.90;;;3.10;99.90;;;;;;5043325;28;20198;-75
2023/02/16 02:08:27;;;;;;;6.33;3.37;;;3.00;99.90;;;;;;5047853;28;20198;-74
2023/02/16 02:11:27;;;;;;;4.13;2.27;;;3.10;99.90;;;;;;5060323;28;20664;-74
2023/02/16 02:14:27;;;;;;;6.83;2.80;;;3.10;99.90;;;;;;5046929;28;20195;-73
2023/02/16 02:17:03;;;;;;;5.47;2.67;;;3.20;99.90;;;;;;5043183;28;20218;-73
2023/02/16 02:19:44;;;;;;;6.33;2.93;;;3.30;99.90;;;;;;5045370;28;20206;-74
2023/02/16 02:26:15;;;;;;;13.70;4.93;;;3.30;99.90;;;;;;5041428;28;20179;-73
2023/02/16 02:29:20;;;;;;;8.60;4.00;;;3.20;99.90;;;;;;5036929;28;20569;-74
2023/02/16 02:32:06;;;;;;;6.67;3.73;;;3.20;99.90;;;;;;5060205;28;20223;-74
2023/02/16 02:35:11;;;;;;;7.97;3.47;;;3.20;99.90;;;;;;5035496;28;20180;-74
2023/02/16 02:38:01;;;;;;;8.73;3.97;;;3.30;99.90;;;;;;5039948;28;20222;-74
2023/02/16 02:40:47;;;;;;;12.07;4.83;;;3.40;99.90;;;;;;5043183;28;20187;-74
2023/02/16 02:43:37;;;;;;;8.23;4.40;;;3.40;99.90;;;;;;5038585;28;20279;-74
2023/02/16 02:46:23;;;;;;;4.97;3.30;;;3.40;99.90;;;;;;5050197;28;20865;-74
2023/02/16 02:48:50;;;;;;;9.70;4.27;;;3.40;99.90;;;;;;5045026;28;20210;-74
2023/02/16 02:51:29;;;;;;;6.37;3.97;;;3.30;99.90;;;;;;5044931;28;20556;-73
2023/02/16 03:03:30;;;;;;;5.20;2.73;;;3.20;99.90;;;;;;5041806;28;20199;-73
2023/02/16 03:06:23;;;;;;;8.60;4.47;;;3.20;99.90;;;;;;5049136;28;20309;-73
2023/02/16 03:09:05;;;;;;;7.80;3.50;;;2.90;99.90;;;;;;5045914;28;20306;-73
2023/02/16 03:14:21;;;;;;;10.43;4.20;;;2.10;99.90;;;;;;5041661;28;20199;-73
2023/02/16 03:30:57;;;;;;;6.63;3.80;;;1.80;99.90;;;;;;5056250;28;20257;-73
2023/02/16 03:33:26;;;;;;;6.70;3.53;;;1.80;99.90;;;;;;5042410;28;20483;-73
2023/02/16 03:35:53;;;;;;;5.73;3.67;;;1.70;99.90;;;;;;5047511;28;21021;-73
2023/02/16 03:38:21;;;;;;;5.38;3.25;;;1.70;99.90;;;;;;5046615;28;20407;-73
2023/02/16 03:40:49;;;;;;;5.80;3.07;;;1.70;99.90;;;;;;5042707;28;22401;-73
2023/02/16 03:43:15;;;;;;;5.65;3.05;;;1.70;99.90;;;;;;5042696;28;20507;-73
2023/02/16 03:45:44;;;;;;;6.80;3.03;;;1.90;99.90;;;;;;5041761;28;20421;-73
2023/02/16 03:48:11;;;;;;;4.87;2.93;;;2.00;99.90;;;;;;5041008;28;20512;-73
2023/02/16 03:50:37;;;;;;;5.97;2.70;;;1.90;99.90;;;;;;5040824;28;20194;-73
2023/02/16 03:53:06;;;;;;;7.93;3.07;;;1.80;99.90;;;;;;5044315;28;20679;-73
2023/02/16 03:55:42;;;;;;;5.53;3.33;;;1.70;99.90;;;;;;5042389;28;20329;-73
2023/02/16 03:58:14;;;;;;;7.73;3.13;;;1.60;99.90;;;;;;5068180;28;20227;-73
2023/02/16 04:00:40;;;;;;;7.03;3.47;;;1.50;99.90;;;;;;5051932;28;20277;-73
2023/02/16 04:03:10;;;;;;;4.17;2.60;;;1.50;99.90;;;;;;5063658;28;20838;-73
2023/02/16 04:05:37;;;;;;;5.37;2.87;;;1.60;99.90;;;;;;5057061;28;20203;-73
2023/02/16 04:08:05;;;;;;;5.40;2.77;;;1.50;99.90;;;;;;5048366;28;20233;-73
2023/02/16 04:10:31;;;;;;;7.27;3.00;;;1.60;99.90;;;;;;5046327;28;20687;-73
2023/02/16 04:12:58;;;;;;;6.70;2.83;;;1.80;99.90;;;;;;5048924;28;21018;-73
2023/02/16 04:15:27;;;;;;;8.03;2.73;;;2.10;99.90;;;;;;5042514;28;20196;-73
2023/02/16 04:17:54;;;;;;;6.67;2.50;;;2.40;99.90;;;;;;5042511;28;20232;-73
2023/02/16 04:20:25;;;;;;;4.07;2.63;;;2.60;99.90;;;;;;5043624;28;20183;-74
2023/02/16 04:22:51;;;;;;;4.50;2.60;;;2.80;99.90;;;;;;5042244;28;20199;-73
2023/02/16 04:25:19;;;;;;;6.00;2.83;;;2.90;99.90;;;;;;5062281;28;20675;-73
2023/02/16 04:27:49;;;;;;;4.53;2.43;;;2.90;99.90;;;;;;5058197;28;20215;-73
2023/02/16 04:30:27;;;;;;;5.40;2.60;;;3.00;99.90;;;;;;5059643;28;20183;-73
2023/02/16 04:32:54;;;;;;;3.97;2.70;;;3.10;99.90;;;;;;5042605;28;20249;-74
2023/02/16 04:35:21;;;;;;;5.00;3.43;;;3.10;99.90;;;;;;5042300;28;20186;-73
2023/02/16 04:37:49;;;;;;;8.60;4.70;;;3.10;99.90;;;;;;5042028;28;20187;-73
2023/02/16 04:40:17;;;;;;;9.83;5.53;;;3.10;99.90;;;;;;5051578;28;20194;-74
2023/02/16 04:42:45;;;;;;;8.10;5.00;;;3.00;99.90;;;;;;5050297;28;20278;-74
2023/02/16 04:45:13;;;;;;;22.37;12.47;;;2.90;99.90;;;;;;5041430;28;20187;-73
2023/02/16 04:47:39;;;;;;;12.73;6.77;;;2.90;99.90;;;;;;5041729;28;20261;-73
2023/02/16 04:50:07;;;;;;;7.13;4.07;;;2.90;99.90;;;;;;5046641;28;20627;-73
2023/02/16 04:52:33;;;;;;;4.43;2.87;;;2.80;99.90;;;;;;5056208;28;20245;-73
2023/02/16 04:54:59;;;;;;;4.60;2.47;;;2.80;99.90;;;;;;5041300;28;20690;-73
2023/02/16 04:57:27;;;;;;;3.67;2.53;;;2.70;99.90;;;;;;5041577;28;20183;-73
2023/02/16 04:59:54;;;;;;;3.67;2.40;;;2.70;99.90;;;;;;5045476;28;20183;-74
2023/02/16 05:02:20;;;;;;;6.43;2.67;;;2.60;99.90;;;;;;5043989;28;20183;-73
2023/02/16 05:04:46;;;;;;;2.93;2.10;;;2.70;99.90;;;;;;5041884;28;20288;-73
2023/02/16 05:07:12;;;;;;;5.20;2.80;;;2.70;99.90;;;;;;5041756;28;20214;-74
2023/02/16 05:09:39;;;;;;;4.03;2.53;;;2.70;99.90;;;;;;5042587;28;20202;-73
2023/02/16 05:14:50;;;;;;;3.83;2.40;;;2.70;99.90;;;;;;5041516;28;20191;-74
2023/02/16 05:17:19;;;;;;;3.53;2.37;;;2.60;99.90;;;;;;5043140;28;20652;-73
2023/02/16 05:19:52;;;;;;;4.97;2.63;;;2.60;99.90;;;;;;5041452;28;20249;-74
2023/02/16 05:22:19;;;;;;;2.90;2.10;;;2.70;99.90;;;;;;5042790;28;20192;-73
2023/02/16 05:24:46;;;;;;;4.50;2.50;;;2.60;99.90;;;;;;5041119;28;20191;-73
2023/02/16 05:27:28;;;;;;;4.17;2.63;;;2.50;99.90;;;;;;5048636;28;20647;-74
2023/02/16 05:29:54;;;;;;;3.57;2.40;;;2.60;99.90;;;;;;5045084;28;20282;-73
2023/02/16 05:32:21;;;;;;;7.57;3.83;;;2.60;99.90;;;;;;5041928;28;20184;-73
2023/02/16 05:34:47;;;;;;;4.23;2.90;;;2.50;99.90;;;;;;5043676;28;20184;-73
2023/02/16 05:37:16;;;;;;;3.87;2.50;;;2.50;99.90;;;;;;5042678;28;20200;-73
2023/02/16 05:39:44;;;;;;;4.80;2.60;;;2.50;99.90;;;;;;5042269;28;20253;-73
2023/02/16 05:42:10;;;;;;;7.70;2.80;;;2.50;99.90;;;;;;5041477;28;20195;-73
2023/02/16 05:44:37;;;;;;;4.83;2.90;;;2.60;99.90;;;;;;5038616;28;20199;-74
2023/02/16 05:47:04;;;;;;;5.83;3.30;;;2.60;99.90;;;;;;5044133;28;20203;-74
2023/02/16 05:49:30;;;;;;;4.83;2.77;;;2.60;99.90;;;;;;5041899;28;20195;-73
2023/02/16 05:51:56;;;;;;;5.57;3.40;;;2.60;99.90;;;;;;5062272;28;20190;-74
2023/02/16 05:54:23;;;;;;;4.67;3.00;;;2.70;99.90;;;;;;5049005;28;20555;-74
2023/02/16 05:56:51;;;;;;;3.73;2.40;;;2.80;99.90;;;;;;5040154;28;20680;-73
2023/02/16 05:59:18;;;;;;;4.77;2.97;;;2.90;99.90;;;;;;5042523;28;20245;-73
2023/02/16 06:01:45;;;;;;;6.80;3.23;;;3.00;99.90;;;;;;5054421;28;20288;-73
2023/02/16 06:04:16;;;;;;;6.00;3.30;;;3.10;99.90;;;;;;5060585;28;20270;-73
2023/02/16 06:06:46;;;;;;;5.70;3.00;;;3.20;99.90;;;;;;5020163;28;20207;-74
2023/02/16 06:09:12;;;;;;;6.80;2.97;;;3.30;99.90;;;;;;5041988;28;20600;-74
2023/02/16 06:11:38;;;;;;;3.67;2.57;;;3.40;99.90;;;;;;5040057;28;20190;-73
2023/02/16 06:14:14;;;;;;;5.00;2.60;;;3.50;99.90;;;;;;5042057;28;20187;-73
2023/02/16 06:16:46;;;;;;;5.10;2.90;;;3.60;99.90;;;;;;5042357;28;20219;-73
2023/02/16 06:19:14;;;;;;;4.67;2.43;;;3.70;99.90;;;;;;5041585;28;20282;-74
2023/02/16 06:21:44;;;;;;;3.07;2.30;;;3.90;99.90;;;;;;5053155;28;20184;-73
2023/02/16 06:24:13;;;;;;;5.30;2.83;;;4.00;99.90;;;;;;5040570;28;20282;-73
2023/02/16 06:26:40;;;;;;;4.23;2.30;;;4.20;99.90;;;;;;5042098;28;20888;-73
2023/02/16 06:29:06;;;;;;;5.33;2.57;;;4.30;99.90;;;;;;5042360;28;20187;-73
2023/02/16 06:31:33;;;;;;;4.43;2.30;;;4.40;99.90;;;;;;5040523;28;20253;-73
2023/02/16 06:34:02;;;;;;;4.40;2.30;;;4.40;99.90;;;;;;5043445;28;21021;-73
2023/02/16 06:36:29;;;;;;;5.77;2.40;;;4.60;99.90;;;;;;5039532;28;20662;-73
2023/02/16 06:38:55;;;;;;;3.00;1.90;;;4.60;99.90;;;;;;5059407;28;20226;-74
2023/02/16 06:41:30;;;;;;;3.83;2.40;;;4.60;99.90;;;;;;5041694;28;20727;-74
2023/02/16 06:44:13;;;;;;;3.77;2.90;;;4.60;99.90;;;;;;5040779;28;20728;-74
2023/02/16 06:46:45;;;;;;;3.53;2.23;;;4.80;99.90;;;;;;5040202;28;20357;-74
2023/02/16 06:49:18;;;;;;;4.40;2.53;;;4.80;99.90;;;;;;5038177;28;20278;-74
2023/02/16 06:51:45;;;;;;;5.20;2.03;;;5.00;99.90;;;;;;5039491;28;20191;-74
2023/02/16 06:54:11;;;;;;;3.83;2.20;;;5.00;99.90;;;;;;5043597;28;20245;-74
2023/02/16 06:56:39;;;;;;;4.20;2.50;;;4.90;99.90;;;;;;5057527;28;20264;-74
2023/02/16 06:59:08;;;;;;;4.37;2.50;;;4.90;99.90;;;;;;5042847;28;20191;-73
2023/02/16 07:01:34;;;;;;;4.10;2.20;;;4.90;99.90;;;;;;5057350;28;20187;-73
2023/02/16 07:04:01;;;;;;;3.77;2.40;;;4.90;99.90;;;;;;5041126;28;20551;-74
2023/02/16 07:06:28;;;;;;;3.93;2.50;;;4.90;99.90;;;;;;5054613;28;20882;-74
2023/02/16 07:08:55;;;;;;;4.73;2.70;;;5.00;99.90;;;;;;5038459;28;20190;-74
2023/02/16 07:11:24;;;;;;;3.93;2.50;;;5.20;99.90;;;;;;5052791;28;20283;-74
2023/02/16 07:13:50;;;;;;;3.00;2.13;;;5.30;99.90;;;;;;5039451;28;20233;-74
2023/02/16 07:16:17;;;;;;;7.70;2.60;;;5.40;99.90;;;;;;5041442;28;20191;-73
2023/02/16 07:18:45;;;;;;;4.23;2.63;;;5.50;99.90;;;;;;5041028;28;20184;-73
2023/02/16 07:21:15;;;;;;;4.83;2.57;;;5.50;99.90;;;;;;5073301;28;20192;-73
2023/02/16 07:23:44;;;;;;;4.57;2.73;;;5.70;99.90;;;;;;5037320;28;20195;-73
2023/02/16 07:26:11;;;;;;;5.57;2.47;;;5.80;99.90;;;;;;5039559;28;20216;-73
2023/02/16 07:28:37;;;;;;;4.87;2.30;;;5.90;99.90;;;;;;5039240;28;20242;-74
2023/02/16 07:31:13;;;;;;;3.33;2.33;;;5.90;99.90;;;;;;5039960;28;20215;-73
2023/02/16 07:33:40;;;;;;;3.40;2.23;;;5.90;99.90;;;;;;5035810;28;20644;-73
2023/02/16 07:36:08;;;;;;;4.43;2.20;;;6.10;99.90;;;;;;5042699;28;20199;-73
2023/02/16 07:38:35;;;;;;;5.53;2.37;;;6.20;99.90;;;;;;5045575;28;20891;-73
2023/02/16 07:41:02;;;;;;;4.40;2.23;;;6.20;99.90;;;;;;5042816;28;20183;-73
2023/02/16 07:43:28;;;;;;;5.33;2.20;;;6.30;99.90;;;;;;5044832;28;20198;-74
2023/02/16 07:45:55;;;;;;;3.10;2.30;;;6.30;99.90;;;;;;5072164;28;20192;-74
2023/02/16 07:48:21;;;;;;;3.87;2.50;;;6.40;99.90;;;;;;5040095;28;20798;-73
2023/02/16 07:50:48;;;;;;;3.33;2.50;;;6.60;99.90;;;;;;5040304;28;20191;-73
2023/02/16 07:53:14;;;;;;;3.53;2.23;;;6.80;99.90;;;;;;5043466;28;20217;-73
2023/02/16 07:55:43;;;;;;;5.00;2.33;;;6.90;99.90;;;;;;5042706;28;20187;-74
2023/02/16 07:58:09;;;;;;;5.03;2.53;;;7.00;99.90;;;;;;5028726;28;21183;-73
2023/02/16 08:00:36;;;;;;;7.07;2.50;;;6.90;99.90;;;;;;5071945;28;20188;-73
2023/02/16 08:03:03;;;;;;;4.17;2.40;;;6.70;99.90;;;;;;5041769;28;20219;-73
2023/02/16 08:05:29;;;;;;;3.30;2.40;;;6.80;99.90;;;;;;5040055;28;20301;-74
2023/02/16 08:07:55;;;;;;;3.27;2.33;;;7.00;99.90;;;;;;5042871;28;20223;-73
2023/02/16 08:10:22;;;;;;;3.70;2.70;;;7.20;99.90;;;;;;5039660;28;20192;-73
2023/02/16 08:12:48;;;;;;;4.63;2.20;;;7.20;99.90;;;;;;5039706;28;20199;-73
2023/02/16 08:15:15;;;;;;;3.37;2.23;;;7.40;99.90;;;;;;5035646;28;20188;-73
2023/02/16 08:17:42;;;;;;;3.73;2.47;;;7.70;99.90;;;;;;5042581;28;20278;-73
2023/02/16 08:20:09;;;;;;;5.27;2.70;;;7.80;99.90;;;;;;5038770;28;20192;-74
2023/02/16 08:22:36;;;;;;;6.17;2.40;;;8.00;99.90;;;;;;5040106;28;20258;-73
2023/02/16 08:25:04;;;;;;;2.90;2.33;;;8.00;99.90;;;;;;5040447;28;20249;-73
2023/02/16 08:27:32;;;;;;;5.90;2.60;;;8.00;99.90;;;;;;5038867;28;20211;-74
2023/02/16 08:29:58;;;;;;;5.07;2.53;;;8.10;99.90;;;;;;5041546;28;20195;-73
2023/02/16 08:32:25;;;;;;;3.73;2.50;;;8.20;99.90;;;;;;5054083;28;20202;-74
2023/02/16 08:34:51;;;;;;;6.30;3.03;;;8.10;99.90;;;;;;5023567;28;20246;-74
2023/02/16 08:37:17;;;;;;;5.13;2.77;;;8.30;99.90;;;;;;5042854;28;21963;-73
2023/02/16 08:39:44;;;;;;;5.07;2.60;;;8.30;99.90;;;;;;5037370;28;20491;-73
2023/02/16 08:42:12;;;;;;;2.53;1.93;;;8.70;99.90;;;;;;5043745;28;20187;-73
2023/02/16 08:44:39;;;;;;;3.90;2.40;;;8.80;99.90;;;;;;5040628;28;20195;-74
2023/02/16 08:47:06;;;;;;;2.50;2.00;;;8.50;99.90;;;;;;5041146;28;20334;-73
2023/02/16 08:49:32;;;;;;;3.57;2.30;;;8.40;99.90;;;;;;5055229;28;20187;-74
2023/02/16 08:52:00;;;;;;;3.20;2.20;;;8.50;99.90;;;;;;5035551;28;20551;-73
2023/02/16 08:54:29;;;;;;;2.87;1.90;;;8.60;99.90;;;;;;5039906;28;20282;-74
2023/02/16 08:57:00;;;;;;;5.00;2.20;;;8.70;99.90;;;;;;5041541;28;20188;-73
2023/02/16 08:59:27;;;;;;;3.63;2.20;;;8.90;99.90;;;;;;5039692;28;20273;-73
2023/02/16 09:01:54;;;;;;;3.47;2.17;;;9.10;99.90;;;;;;5042080;28;20198;-74
2023/02/16 09:04:20;;;;;;;5.20;1.97;;;9.20;99.90;;;;;;5042135;28;20237;-74
2023/02/16 09:06:47;;;;;;;4.20;2.40;;;9.30;99.90;;;;;;5039980;28;20270;-74
2023/02/16 09:09:15;;;;;;;6.23;2.00;;;9.30;99.90;;;;;;5042446;28;20203;-74
2023/02/16 09:11:42;;;;;;;3.57;2.00;;;9.20;99.90;;;;;;5043528;28;20187;-74
2023/02/16 09:14:09;;;;;;;3.07;2.00;;;9.30;99.90;;;;;;5043096;28;20256;-74
2023/02/16 09:16:42;;;;;;;4.43;2.30;;;9.40;99.90;;;;;;5042214;28;20187;-73
2023/02/16 09:19:08;;;;;;;5.57;2.30;;;9.50;99.90;;;;;;5041321;28;20190;-74
2023/02/16 09:21:36;;;;;;;2.57;1.97;;;9.50;99.90;;;;;;5040471;28;20269;-74
2023/02/16 09:24:04;;;;;;;2.37;1.93;;;9.40;99.90;;;;;;5042113;28;20270;-74
2023/02/16 09:26:35;;;;;;;3.43;2.20;;;9.50;99.90;;;;;;5038089;28;20328;-74
2023/02/16 09:29:02;;;;;;;3.63;1.97;;;9.40;99.90;;;;;;5042876;28;20191;-74
2023/02/16 09:31:33;;;;;;;3.87;2.07;;;9.40;99.90;;;;;;5041907;28;20679;-74
2023/02/16 09:34:17;;;;;;;3.90;2.30;;;9.20;99.90;;;;;;5040573;28;20176;-74
2023/02/16 09:36:46;;;;;;;3.83;2.43;;;9.10;99.90;;;;;;5038136;28;20191;-73
2023/02/16 09:39:12;;;;;;;5.00;2.37;;;9.40;99.90;;;;;;5041071;28;20199;-74
2023/02/16 09:42:02;;;;;;;3.30;2.20;;;9.70;99.90;;;;;;5049037;28;20544;-74
2023/02/16 09:44:36;;;;;;;2.50;1.70;;;10.00;99.90;;;;;;5035283;28;20196;-74
2023/02/16 09:47:24;;;;;;;5.07;2.00;;;10.10;99.90;;;;;;5058395;28;20203;-73
2023/02/16 09:49:55;;;;;;;3.53;2.00;;;10.10;99.90;;;;;;5051509;28;21656;-74
2023/02/16 09:52:45;;;;;;;2.77;1.83;;;10.20;99.90;;;;;;5038304;28;20180;-74
2023/02/16 09:55:17;;;;;;;2.97;2.03;;;10.30;99.90;;;;;;5036133;28;20179;-74
2023/02/16 09:58:14;;;;;;;3.33;1.93;;;10.40;99.90;;;;;;5036218;28;20233;-74
2023/02/16 10:00:50;;;;;;;3.83;1.70;;;10.40;99.90;;;;;;5038102;28;20726;-74
2023/02/16 10:03:41;;;;;;;3.07;1.93;;;10.60;99.90;;;;;;5040008;28;20190;-74
2023/02/16 10:06:44;;;;;;;4.97;1.93;;;10.60;99.90;;;;;;5040306;28;20203;-74
2023/02/16 10:09:17;;;;;;;3.77;2.17;;;10.50;99.90;;;;;;5038382;28;20197;-74
2023/02/16 10:12:00;;;;;;;6.60;2.40;;;10.50;99.90;;;;;;5051982;28;20187;-74
2023/02/16 10:14:51;;;;;;;5.80;2.27;;;10.80;99.90;;;;;;5034467;28;20525;-74
2023/02/16 10:17:33;;;;;;;3.37;2.33;;;11.00;99.90;;;;;;5036720;28;20183;-74
2023/02/16 10:20:13;;;;;;;4.77;2.33;;;11.00;99.90;;;;;;5041001;28;20183;-74
2023/02/16 10:23:33;;;;;;;3.70;2.40;;;11.10;99.90;;;;;;5039317;28;20778;-74
2023/02/16 10:26:18;;;;;;;4.97;2.60;;;11.10;99.90;;;;;;5038154;28;22594;-74
2023/02/16 10:28:51;;;;;;;4.67;2.20;;;11.40;99.90;;;;;;5033613;28;20258;-74
2023/02/16 10:31:52;;;;;;;5.27;2.27;;;11.50;99.90;;;;;;5038544;28;20282;-74
2023/02/16 10:34:46;;;;;;;3.57;2.07;;;11.60;99.90;;;;;;5024110;28;20252;-74
2023/02/16 10:38:11;;;;;;;4.63;2.43;;;11.60;99.90;;;;;;5037715;28;20659;-74
2023/02/16 10:41:19;;;;;;;2.90;2.10;;;11.50;99.90;;;;;;5023787;28;20665;-74
2023/02/16 10:44:29;;;;;;;5.50;2.40;;;11.30;99.90;;;;;;5038249;28;20294;-74
2023/02/16 10:47:04;;;;;;;5.40;2.40;;;12.00;99.90;;;;;;5040597;28;20218;-74
2023/02/16 10:49:35;;;;;;;4.67;2.53;;;12.40;99.90;;;;;;5055847;28;20222;-74
2023/02/16 10:52:02;;;;;;;2.53;2.13;;;12.60;99.90;;;;;;5051440;28;20187;-74
2023/02/16 10:54:32;;;;;;;6.43;2.43;;;12.90;99.90;;;;;;5038783;28;20199;-74
2023/02/16 10:57:25;;;;;;;4.47;2.33;;;13.60;99.90;;;;;;5056190;28;20290;-74
2023/02/16 10:59:55;;;;;;;4.20;2.67;;;14.00;99.90;;;;;;5039861;28;20247;-74
2023/02/16 11:02:36;;;;;;;3.97;2.27;;;14.10;99.90;;;;;;5037755;28;20675;-74
2023/02/16 11:05:25;;;;;;;4.10;2.30;;;13.80;99.90;;;;;;5037481;28;20201;-74
2023/02/16 11:08:00;;;;;;;4.83;2.40;;;14.00;99.90;;;;;;5041057;28;20208;-74
2023/02/16 11:10:39;;;;;;;5.30;2.40;;;14.00;99.90;;;;;;5056039;28;20183;-74
2023/02/16 11:13:16;;;;;;;5.40;2.60;;;14.20;99.90;;;;;;5059937;28;20187;-74
2023/02/16 11:15:49;;;;;;;3.30;2.20;;;14.20;99.90;;;;;;5041314;28;20191;-74
2023/02/16 11:18:45;;;;;;;5.50;2.60;;;13.40;99.90;;;;;;5040073;28;22103;-74
2023/02/16 11:21:12;;;;;;;3.30;2.13;;;13.10;99.90;;;;;;5045244;28;20253;-74
2023/02/16 11:23:56;;;;;;;4.20;2.40;;;12.90;99.90;;;;;;5045664;28;21086;-74
2023/02/16 11:26:25;;;;;;;5.43;2.53;;;12.60;99.90;;;;;;5059072;28;20641;-74
2023/02/16 11:28:52;;;;;;;3.50;2.43;;;12.10;99.90;;;;;;5039899;28;20211;-74
2023/02/16 11:31:38;;;;;;;7.50;2.20;;;11.70;99.90;;;;;;5043952;28;20560;-74
2023/02/16 11:34:29;;;;;;;3.97;1.90;;;11.80;99.90;;;;;;5044292;28;20201;-74
2023/02/16 11:37:12;;;;;;;6.70;2.10;;;11.80;99.90;;;;;;5038634;28;20203;-74
2023/02/16 11:39:48;;;;;;;2.93;2.00;;;11.60;99.90;;;;;;5040597;28;20744;-74
2023/02/16 11:42:43;;;;;;;5.43;1.80;;;11.90;99.90;;;;;;5044754;28;20197;-74
2023/02/16 11:45:34;;;;;;;5.70;2.10;;;11.80;99.90;;;;;;5029022;28;20190;-74
2023/02/16 11:48:12;;;;;;;2.70;1.60;;;11.70;99.90;;;;;;5036429;28;20605;-74
2023/02/16 11:50:56;;;;;;;3.77;1.80;;;11.90;99.90;;;;;;5061649;28;20551;-74
2023/02/16 11:53:33;;;;;;;5.07;2.10;;;12.10;99.90;;;;;;5046519;28;20275;-74
2023/02/16 11:56:26;;;;;;;3.10;1.80;;;12.40;99.90;;;;;;5044091;28;20183;-74
2023/02/16 11:59:24;;;;;;;2.43;1.70;;;12.30;99.90;;;;;;5057489;28;20191;-74
2023/02/16 12:02:15;;;;;;;4.23;2.13;;;12.50;99.90;;;;;;5025963;28;20226;-74
2023/02/16 12:05:25;;;;;;;3.17;2.00;;;12.60;99.90;;;;;;5041861;28;20203;-74
2023/02/16 12:08:11;;;;;;;5.47;1.93;;;12.70;99.90;;;;;;5040475;28;20218;-74
2023/02/16 12:11:02;;;;;;;4.97;1.73;;;12.90;99.90;;;;;;5041955;28;20547;-74
2023/02/16 12:13:56;;;;;;;4.33;2.00;;;12.80;99.90;;;;;;5043040;28;20211;-74
2023/02/16 12:16:48;;;;;;;3.63;2.10;;;12.80;99.90;;;;;;5041839;28;20176;-74
2023/02/16 12:19:59;;;;;;;6.30;2.03;;;12.70;99.90;;;;;;5040588;28;20183;-74
2023/02/16 12:22:39;;;;;;;4.13;1.97;;;12.90;99.90;;;;;;5056510;28;20843;-74
2023/02/16 12:25:30;;;;;;;5.10;1.90;;;12.90;99.90;;;;;;5043559;28;20217;-74
2023/02/16 12:28:11;;;;;;;3.43;2.10;;;12.90;99.90;;;;;;5040906;28;20216;-74
2023/02/16 12:31:21;;;;;;;4.63;2.43;;;12.90;99.90;;;;;;5042272;28;20187;-74
2023/02/16 12:34:30;;;;;;;4.50;2.50;;;12.60;99.90;;;;;;5042196;28;20654;-74
2023/02/16 12:37:08;;;;;;;5.43;2.23;;;12.60;99.90;;;;;;5041493;28;20716;-74
2023/02/16 12:39:57;;;;;;;4.73;2.30;;;12.70;99.90;;;;;;5044012;28;20245;-74
2023/02/16 12:42:41;;;;;;;4.47;1.90;;;12.60;99.90;;;;;;5021900;28;20195;-74
2023/02/16 12:45:21;;;;;;;4.97;2.13;;;12.60;99.90;;;;;;5057733;28;20691;-74
2023/02/16 12:48:39;;;;;;;4.10;2.00;;;12.50;99.90;;;;;;5043082;28;20207;-74
2023/02/16 12:51:24;;;;;;;2.77;1.50;;;12.40;99.90;;;;;;5040810;28;20218;-74
2023/02/16 12:54:09;;;;;;;2.97;2.10;;;12.50;99.90;;;;;;5055369;28;20187;-73
2023/02/16 12:56:44;;;;;;;6.90;2.23;;;12.40;99.90;;;;;;5042420;28;20176;-74
2023/02/16 12:59:34;;;;;;;5.50;2.40;;;12.10;99.90;;;;;;5076935;28;20190;-74
2023/02/16 13:02:04;;;;;;;4.60;2.37;;;12.10;99.90;;;;;;5043102;28;20299;-74
2023/02/16 13:04:43;;;;;;;4.77;2.13;;;11.90;99.90;;;;;;5058688;28;20277;-73
2023/02/16 13:07:34;;;;;;;2.10;1.90;;;11.90;99.90;;;;;;5041181;28;20740;-73
2023/02/16 13:10:43;;;;;;;6.80;2.10;;;11.90;99.90;;;;;;5043360;28;20585;-74
2023/02/16 13:13:18;;;;;;;3.70;2.00;;;12.10;99.90;;;;;;5042095;28;20175;-73
2023/02/16 13:16:10;;;;;;;3.17;2.20;;;11.80;99.90;;;;;;5041259;28;20283;-74
2023/02/16 13:18:41;;;;;;;6.27;2.37;;;11.70;99.90;;;;;;5042881;28;20186;-74
2023/02/16 13:21:58;;;;;;;4.33;2.00;;;11.70;99.90;;;;;;5038757;28;20191;-73
2023/02/16 13:25:02;;;;;;;4.40;1.97;;;11.90;99.90;;;;;;5040616;28;20249;-73
2023/02/16 13:28:21;;;;;;;11.30;2.10;;;12.10;99.90;;;;;;5037992;28;20233;-73
2023/02/16 13:31:42;;;;;;;5.07;2.50;;;12.10;99.90;;;;;;5043294;28;20180;-74
2023/02/16 13:34:57;;;;;;;3.77;2.03;;;12.20;99.90;;;;;;5039994;28;20203;-74
2023/02/16 13:37:40;;;;;;;5.47;2.57;;;11.60;99.90;;;;;;5038029;28;20188;-74
2023/02/16 13:40:43;;;;;;;3.80;2.30;;;11.50;99.90;;;;;;5041932;28;20194;-74
2023/02/16 13:43:26;;;;;;;5.40;2.60;;;11.30;99.90;;;;;;5037855;28;20623;-74
2023/02/16 13:45:53;;;;;;;3.40;2.20;;;11.60;99.90;;;;;;5037311;28;20208;-73
2023/02/16 13:48:55;;;;;;;3.53;2.00;;;11.80;99.90;;;;;;5049105;28;20208;-74
2023/02/16 13:51:26;;;;;;;4.13;1.57;;;11.70;99.90;;;;;;5039364;28;20206;-73
2023/02/16 13:54:02;;;;;;;5.13;1.90;;;11.70;99.90;;;;;;5041373;28;20205;-74
2023/02/16 13:56:29;;;;;;;4.67;2.37;;;11.80;99.90;;;;;;5039197;28;20454;-74
2023/02/16 13:58:59;;;;;;;2.53;2.00;;;11.90;99.90;;;;;;5037627;28;20187;-74
2023/02/16 14:01:36;;;;;;;4.40;2.00;;;11.80;99.90;;;;;;5041782;28;21012;-74
2023/02/16 14:04:25;;;;;;;4.23;1.90;;;11.70;99.90;;;;;;5041478;28;20203;-74
2023/02/16 14:07:31;;;;;;;6.23;2.20;;;11.70;99.90;;;;;;5037346;28;20211;-74
2023/02/16 14:09:59;;;;;;;3.60;2.00;;;11.70;99.90;;;;;;5043808;28;20214;-74
2023/02/16 14:12:30;;;;;;;6.27;2.10;;;11.70;99.90;;;;;;5044137;28;20648;-74
2023/02/16 14:15:16;;;;;;;4.50;2.37;;;11.60;99.90;;;;;;5040830;28;20284;-74
2023/02/16 14:17:44;;;;;;;4.13;2.30;;;11.60;99.90;;;;;;5038298;28;20227;-74
2023/02/16 14:20:15;;;;;;;5.50;2.30;;;11.50;99.90;;;;;;5041497;28;20187;-74
2023/02/16 14:22:56;;;;;;;3.63;2.13;;;11.50;99.90;;;;;;5039395;28;20187;-74